sensor_id;sensor_type;location;lat;lon;timestamp;pressure;altitude;pressure_sealevel;temperature;humidity
56721;BME280;53183;47.412;18.884;2023-02-21T00:02:38;99204.28;;;5.72;99.30
56721;BME280;53183;47.412;18.884;2023-02-21T00:05:24;99201.63;;;5.73;98.71
56721;BME280;53183;47.412;18.884;2023-02-21T00:08:11;99207.00;;;5.70;98.58
56721;BME280;53183;47.412;18.884;2023-02-21T00:10:57;99204.16;;;5.75;98.08
56721;BME280;53183;47.412;18.884;2023-02-21T00:13:43;99196.38;;;5.73;97.92
56721;BME280;53183;47.412;18.884;2023-02-21T00:16:29;99196.25;;;5.76;97.90
56721;BME280;53183;47.412;18.884;2023-02-21T00:19:15;99197.34;;;5.71;97.35
56721;BME280;53183;47.412;18.884;2023-02-21T00:22:01;99196.03;;;5.82;96.69
56721;BME280;53183;47.412;18.884;2023-02-21T00:24:47;99196.19;;;5.78;96.58
56721;BME280;53183;47.412;18.884;2023-02-21T00:27:33;99196.50;;;5.70;96.77
56721;BME280;53183;47.412;18.884;2023-02-21T00:30:19;99191.06;;;5.75;96.53
56721;BME280;53183;47.412;18.884;2023-02-21T00:33:05;99192.84;;;5.74;96.36
56721;BME280;53183;47.412;18.884;2023-02-21T00:35:53;99192.94;;;5.71;96.28
56721;BME280;53183;47.412;18.884;2023-02-21T00:38:39;99189.59;;;5.68;96.46
56721;BME280;53183;47.412;18.884;2023-02-21T00:41:24;99193.19;;;5.65;96.38
56721;BME280;53183;47.412;18.884;2023-02-21T00:44:10;99188.00;;;5.63;96.37
56721;BME280;53183;47.412;18.884;2023-02-21T00:46:56;99186.00;;;5.70;95.81
56721;BME280;53183;47.412;18.884;2023-02-21T00:49:43;99177.34;;;5.68;95.50
56721;BME280;53183;47.412;18.884;2023-02-21T00:52:29;99180.88;;;5.67;95.53
56721;BME280;53183;47.412;18.884;2023-02-21T00:55:15;99177.47;;;5.65;95.21
56721;BME280;53183;47.412;18.884;2023-02-21T00:58:01;99185.91;;;5.73;94.84
56721;BME280;53183;47.412;18.884;2023-02-21T01:00:47;99180.66;;;5.73;94.85
56721;BME280;53183;47.412;18.884;2023-02-21T01:03:33;99180.66;;;5.73;94.64
56721;BME280;53183;47.412;18.884;2023-02-21T01:06:19;99182.59;;;5.68;94.96
56721;BME280;53183;47.412;18.884;2023-02-21T01:09:05;99185.91;;;5.73;94.69
56721;BME280;53183;47.412;18.884;2023-02-21T01:11:51;99182.47;;;5.71;94.65
56721;BME280;53183;47.412;18.884;2023-02-21T01:14:37;99179.22;;;5.64;94.90
56721;BME280;53183;47.412;18.884;2023-02-21T01:17:24;99173.25;;;5.61;95.38
56721;BME280;53183;47.412;18.884;2023-02-21T01:20:11;99181.00;;;5.64;95.41
56721;BME280;53183;47.412;18.884;2023-02-21T01:22:56;99189.28;;;5.75;94.84
56721;BME280;53183;47.412;18.884;2023-02-21T01:25:43;99185.78;;;5.76;94.50
56721;BME280;53183;47.412;18.884;2023-02-21T01:28:29;99183.03;;;5.79;94.23
56721;BME280;53183;47.412;18.884;2023-02-21T01:31:19;99185.09;;;5.71;94.74
56721;BME280;53183;47.412;18.884;2023-02-21T01:34:06;99180.06;;;5.65;94.72
56721;BME280;53183;47.412;18.884;2023-02-21T01:36:52;99183.84;;;5.58;95.03
56721;BME280;53183;47.412;18.884;2023-02-21T01:39:38;99179.56;;;5.55;94.82
56721;BME280;53183;47.412;18.884;2023-02-21T01:42:24;99176.22;;;5.52;94.96
56721;BME280;53183;47.412;18.884;2023-02-21T01:48:11;99170.19;;;5.50;94.77
56721;BME280;53183;47.412;18.884;2023-02-21T01:51:01;99165.19;;;5.65;93.91
56721;BME280;53183;47.412;18.884;2023-02-21T01:53:48;99173.03;;;5.67;93.36
56721;BME280;53183;47.412;18.884;2023-02-21T01:56:35;99165.81;;;5.72;93.17
56721;BME280;53183;47.412;18.884;2023-02-21T01:59:21;99162.78;;;5.83;92.71
56721;BME280;53183;47.412;18.884;2023-02-21T02:02:28;99159.00;;;5.90;92.03
56721;BME280;53183;47.412;18.884;2023-02-21T02:05:16;99167.00;;;5.87;92.07
56721;BME280;53183;47.412;18.884;2023-02-21T02:08:03;99155.56;;;5.88;91.79
56721;BME280;53183;47.412;18.884;2023-02-21T02:11:02;99151.91;;;5.92;91.83
56721;BME280;53183;47.412;18.884;2023-02-21T02:14:07;99149.19;;;5.95;91.29
56721;BME280;53183;47.412;18.884;2023-02-21T02:32:57;99148.13;;;5.55;92.13
56721;BME280;53183;47.412;18.884;2023-02-21T02:35:37;99144.09;;;5.47;92.24
56721;BME280;53183;47.412;18.884;2023-02-21T02:38:32;99137.75;;;5.30;92.99
56721;BME280;53183;47.412;18.884;2023-02-21T02:41:10;99139.75;;;5.24;93.20
56721;BME280;53183;47.412;18.884;2023-02-21T02:43:56;99139.91;;;5.19;93.23
56721;BME280;53183;47.412;18.884;2023-02-21T02:46:27;99128.75;;;5.14;93.35
56721;BME280;53183;47.412;18.884;2023-02-21T02:49:09;99134.84;;;5.14;93.17
56721;BME280;53183;47.412;18.884;2023-02-21T02:51:38;99123.50;;;5.14;93.13
56721;BME280;53183;47.412;18.884;2023-02-21T02:54:07;99114.56;;;5.20;92.76
56721;BME280;53183;47.412;18.884;2023-02-21T02:56:35;99119.59;;;5.48;91.25
56721;BME280;53183;47.412;18.884;2023-02-21T02:59:09;99109.13;;;5.70;90.19
56721;BME280;53183;47.412;18.884;2023-02-21T03:07:25;99110.81;;;6.15;87.31
56721;BME280;53183;47.412;18.884;2023-02-21T03:15:54;99098.34;;;6.40;85.51
56721;BME280;53183;47.412;18.884;2023-02-21T03:18:29;99101.66;;;6.45;85.04
56721;BME280;53183;47.412;18.884;2023-02-21T03:21:00;99106.19;;;6.42;84.86
56721;BME280;53183;47.412;18.884;2023-02-21T03:23:32;99103.56;;;6.42;84.86
56721;BME280;53183;47.412;18.884;2023-02-21T03:26:03;99108.97;;;6.37;85.20
56721;BME280;53183;47.412;18.884;2023-02-21T03:28:33;99105.62;;;6.33;85.30
56721;BME280;53183;47.412;18.884;2023-02-21T03:31:03;99107.47;;;6.31;85.10
56721;BME280;53183;47.412;18.884;2023-02-21T03:33:34;99105.75;;;6.30;85.44
56721;BME280;53183;47.412;18.884;2023-02-21T03:36:05;99098.69;;;6.32;85.10
56721;BME280;53183;47.412;18.884;2023-02-21T03:38:34;99111.56;;;6.39;84.50
56721;BME280;53183;47.412;18.884;2023-02-21T03:41:02;99119.88;;;6.48;84.37
56721;BME280;53183;47.412;18.884;2023-02-21T03:43:30;99114.31;;;6.56;83.99
56721;BME280;53183;47.412;18.884;2023-02-21T03:45:57;99116.66;;;6.62;84.33
56721;BME280;53183;47.412;18.884;2023-02-21T03:48:26;99116.19;;;6.73;83.40
56721;BME280;53183;47.412;18.884;2023-02-21T03:50:59;99122.69;;;6.85;83.16
56721;BME280;53183;47.412;18.884;2023-02-21T03:53:27;99119.56;;;6.95;82.27
56721;BME280;53183;47.412;18.884;2023-02-21T03:55:54;99117.03;;;7.13;81.57
56721;BME280;53183;47.412;18.884;2023-02-21T03:58:23;99118.31;;;7.23;81.09
56721;BME280;53183;47.412;18.884;2023-02-21T04:00:51;99121.22;;;7.36;80.56
56721;BME280;53183;47.412;18.884;2023-02-21T04:03:20;99114.31;;;7.52;79.54
56721;BME280;53183;47.412;18.884;2023-02-21T04:05:49;99112.34;;;7.57;79.09
56721;BME280;53183;47.412;18.884;2023-02-21T04:08:17;99103.97;;;7.66;78.45
56721;BME280;53183;47.412;18.884;2023-02-21T04:10:44;99110.03;;;7.68;77.99
56721;BME280;53183;47.412;18.884;2023-02-21T04:13:19;99115.41;;;7.84;76.49
56721;BME280;53183;47.412;18.884;2023-02-21T04:15:47;99108.31;;;8.04;75.56
56721;BME280;53183;47.412;18.884;2023-02-21T04:18:15;99111.72;;;8.06;75.00
56721;BME280;53183;47.412;18.884;2023-02-21T04:20:43;99108.87;;;8.10;74.63
56721;BME280;53183;47.412;18.884;2023-02-21T04:23:17;99108.47;;;8.01;75.28
56721;BME280;53183;47.412;18.884;2023-02-21T04:25:44;99111.66;;;8.07;75.02
56721;BME280;53183;47.412;18.884;2023-02-21T04:28:13;99109.31;;;8.01;74.95
56721;BME280;53183;47.412;18.884;2023-02-21T04:30:41;99116.22;;;8.21;73.93
56721;BME280;53183;47.412;18.884;2023-02-21T04:33:08;99106.63;;;8.20;73.96
56721;BME280;53183;47.412;18.884;2023-02-21T04:35:35;99113.34;;;8.26;73.56
56721;BME280;53183;47.412;18.884;2023-02-21T04:38:04;99107.16;;;8.27;73.27
56721;BME280;53183;47.412;18.884;2023-02-21T04:40:32;99108.63;;;8.32;72.69
56721;BME280;53183;47.412;18.884;2023-02-21T04:42:59;99106.19;;;8.47;71.93
56721;BME280;53183;47.412;18.884;2023-02-21T04:45:28;99115.09;;;8.44;72.19
56721;BME280;53183;47.412;18.884;2023-02-21T04:47:55;99109.19;;;8.56;71.36
56721;BME280;53183;47.412;18.884;2023-02-21T04:50:22;99115.53;;;8.52;71.86
56721;BME280;53183;47.412;18.884;2023-02-21T04:52:49;99097.47;;;8.62;71.18
56721;BME280;53183;47.412;18.884;2023-02-21T04:55:16;99110.28;;;8.69;70.97
56721;BME280;53183;47.412;18.884;2023-02-21T04:57:43;99099.03;;;8.66;71.13
56721;BME280;53183;47.412;18.884;2023-02-21T05:00:11;99110.28;;;8.69;70.68
56721;BME280;53183;47.412;18.884;2023-02-21T05:02:44;99112.59;;;8.76;70.43
56721;BME280;53183;47.412;18.884;2023-02-21T05:05:12;99110.13;;;8.73;71.27
56721;BME280;53183;47.412;18.884;2023-02-21T05:07:43;99112.59;;;8.76;70.83
56721;BME280;53183;47.412;18.884;2023-02-21T05:10:10;99108.47;;;8.70;71.37
56721;BME280;53183;47.412;18.884;2023-02-21T05:12:37;99096.56;;;8.63;71.54
56721;BME280;53183;47.412;18.884;2023-02-21T05:15:06;99095.72;;;8.62;72.00
56721;BME280;53183;47.412;18.884;2023-02-21T05:17:33;99100.84;;;8.65;71.48
56721;BME280;53183;47.412;18.884;2023-02-21T05:20:01;99099.94;;;8.65;71.71
56721;BME280;53183;47.412;18.884;2023-02-21T05:22:28;99097.25;;;8.66;71.52
56721;BME280;53183;47.412;18.884;2023-02-21T05:24:55;99094.16;;;8.58;71.98
56721;BME280;53183;47.412;18.884;2023-02-21T05:27:23;99096.63;;;8.61;71.84
56721;BME280;53183;47.412;18.884;2023-02-21T05:29:52;99098.56;;;8.58;72.27
56721;BME280;53183;47.412;18.884;2023-02-21T05:32:20;99097.03;;;8.54;72.53
56721;BME280;53183;47.412;18.884;2023-02-21T05:34:48;99088.59;;;8.47;72.87
56721;BME280;53183;47.412;18.884;2023-02-21T05:37:16;99080.53;;;8.50;72.66
56721;BME280;53183;47.412;18.884;2023-02-21T05:39:43;99081.66;;;8.46;73.28
56721;BME280;53183;47.412;18.884;2023-02-21T05:42:11;99087.81;;;8.45;72.91
56721;BME280;53183;47.412;18.884;2023-02-21T05:44:38;99085.28;;;8.43;73.27
56721;BME280;53183;47.412;18.884;2023-02-21T05:47:05;99083.75;;;8.39;73.32
56721;BME280;53183;47.412;18.884;2023-02-21T05:49:33;99083.03;;;8.36;73.33
56721;BME280;53183;47.412;18.884;2023-02-21T05:52:00;99091.75;;;8.36;73.64
56721;BME280;53183;47.412;18.884;2023-02-21T05:54:27;99094.28;;;8.39;73.22
56721;BME280;53183;47.412;18.884;2023-02-21T05:56:54;99097.94;;;8.35;73.35
56721;BME280;53183;47.412;18.884;2023-02-21T05:59:22;99102.66;;;8.29;73.99
56721;BME280;53183;47.412;18.884;2023-02-21T06:01:49;99099.88;;;8.32;73.56
56721;BME280;53183;47.412;18.884;2023-02-21T06:04:17;99106.88;;;8.33;73.87
56721;BME280;53183;47.412;18.884;2023-02-21T06:06:44;99107.09;;;8.45;72.86
56721;BME280;53183;47.412;18.884;2023-02-21T06:09:12;99104.88;;;8.38;73.78
56721;BME280;53183;47.412;18.884;2023-02-21T06:11:39;99104.22;;;8.33;73.93
56721;BME280;53183;47.412;18.884;2023-02-21T06:14:13;99107.78;;;8.32;74.85
56721;BME280;53183;47.412;18.884;2023-02-21T06:16:41;99107.88;;;8.30;74.43
56721;BME280;53183;47.412;18.884;2023-02-21T06:19:09;99104.00;;;8.20;75.14
56721;BME280;53183;47.412;18.884;2023-02-21T06:21:36;99108.87;;;8.28;75.27
56721;BME280;53183;47.412;18.884;2023-02-21T06:24:05;99113.41;;;8.43;74.84
56721;BME280;53183;47.412;18.884;2023-02-21T06:26:32;99106.72;;;8.53;74.30
56721;BME280;53183;47.412;18.884;2023-02-21T06:29:00;99112.44;;;8.79;73.48
56721;BME280;53183;47.412;18.884;2023-02-21T06:31:27;99116.72;;;8.97;72.93
56721;BME280;53183;47.412;18.884;2023-02-21T06:33:56;99119.81;;;9.05;72.50
56721;BME280;53183;47.412;18.884;2023-02-21T06:36:25;99120.31;;;9.12;72.28
56721;BME280;53183;47.412;18.884;2023-02-21T06:38:54;99122.38;;;9.23;71.90
56721;BME280;53183;47.412;18.884;2023-02-21T06:41:24;99124.03;;;9.41;71.05
56721;BME280;53183;47.412;18.884;2023-02-21T06:43:53;99135.50;;;9.56;70.02
56721;BME280;53183;47.412;18.884;2023-02-21T06:46:23;99145.44;;;9.82;68.91
56721;BME280;53183;47.412;18.884;2023-02-21T06:48:51;99142.41;;;10.36;66.83
56721;BME280;53183;47.412;18.884;2023-02-21T06:51:18;99143.78;;;10.57;65.37
56721;BME280;53183;47.412;18.884;2023-02-21T06:53:48;99155.22;;;10.72;64.25
56721;BME280;53183;47.412;18.884;2023-02-21T06:56:16;99150.84;;;11.01;63.34
56721;BME280;53183;47.412;18.884;2023-02-21T06:58:43;99148.06;;;11.60;61.07
56721;BME280;53183;47.412;18.884;2023-02-21T07:01:10;99145.97;;;12.07;59.48
56721;BME280;53183;47.412;18.884;2023-02-21T07:03:39;99149.88;;;12.28;58.20
56721;BME280;53183;47.412;18.884;2023-02-21T07:06:09;99147.03;;;12.31;58.29
56721;BME280;53183;47.412;18.884;2023-02-21T07:08:36;99153.00;;;12.48;57.70
56721;BME280;53183;47.412;18.884;2023-02-21T07:11:04;99151.97;;;12.23;58.47
56721;BME280;53183;47.412;18.884;2023-02-21T07:13:32;99150.34;;;12.20;58.91
56721;BME280;53183;47.412;18.884;2023-02-21T07:16:00;99148.59;;;12.21;57.68
56721;BME280;53183;47.412;18.884;2023-02-21T07:18:28;99147.81;;;12.59;57.72
56721;BME280;53183;47.412;18.884;2023-02-21T07:20:55;99154.97;;;12.84;56.38
56721;BME280;53183;47.412;18.884;2023-02-21T07:23:23;99151.34;;;12.98;56.13
56721;BME280;53183;47.412;18.884;2023-02-21T07:25:50;99155.91;;;13.21;55.77
56721;BME280;53183;47.412;18.884;2023-02-21T07:28:18;99153.88;;;12.99;55.67
56721;BME280;53183;47.412;18.884;2023-02-21T07:30:45;99159.31;;;12.85;56.19
56721;BME280;53183;47.412;18.884;2023-02-21T07:33:13;99164.97;;;12.53;57.03
56721;BME280;53183;47.412;18.884;2023-02-21T07:35:40;99174.66;;;12.27;58.00
56721;BME280;53183;47.412;18.884;2023-02-21T07:38:07;99177.03;;;11.90;59.08
56721;BME280;53183;47.412;18.884;2023-02-21T07:40:35;99160.56;;;11.44;60.35
56721;BME280;53183;47.412;18.884;2023-02-21T07:43:02;99157.16;;;11.27;61.66
56721;BME280;53183;47.412;18.884;2023-02-21T07:45:29;99161.78;;;11.24;61.51
56721;BME280;53183;47.412;18.884;2023-02-21T07:47:56;99161.50;;;11.14;61.27
56721;BME280;53183;47.412;18.884;2023-02-21T07:50:24;99149.25;;;11.13;61.48
56721;BME280;53183;47.412;18.884;2023-02-21T07:52:51;99164.72;;;11.05;62.25
56721;BME280;53183;47.412;18.884;2023-02-21T07:55:18;99162.47;;;11.13;62.28
56721;BME280;53183;47.412;18.884;2023-02-21T07:57:47;99161.13;;;11.35;61.70
56721;BME280;53183;47.412;18.884;2023-02-21T08:00:14;99165.91;;;11.71;59.23
56721;BME280;53183;47.412;18.884;2023-02-21T08:02:46;99166.47;;;11.90;58.13
56721;BME280;53183;47.412;18.884;2023-02-21T08:05:21;99163.13;;;12.01;57.65
56721;BME280;53183;47.412;18.884;2023-02-21T08:07:48;99177.09;;;12.03;57.72
56721;BME280;53183;47.412;18.884;2023-02-21T08:10:23;99181.38;;;12.06;57.85
56721;BME280;53183;47.412;18.884;2023-02-21T08:12:51;99179.88;;;12.02;57.64
56721;BME280;53183;47.412;18.884;2023-02-21T08:15:18;99181.38;;;12.06;57.03
56721;BME280;53183;47.412;18.884;2023-02-21T08:17:49;99184.56;;;12.11;57.87
56721;BME280;53183;47.412;18.884;2023-02-21T08:20:17;99172.63;;;12.18;57.36
56721;BME280;53183;47.412;18.884;2023-02-21T08:22:44;99178.81;;;12.31;56.46
56721;BME280;53183;47.412;18.884;2023-02-21T08:25:14;99189.25;;;12.20;56.28
56721;BME280;53183;47.412;18.884;2023-02-21T08:27:43;99186.72;;;12.18;55.92
56721;BME280;53183;47.412;18.884;2023-02-21T08:30:12;99179.38;;;12.09;56.59
56721;BME280;53183;47.412;18.884;2023-02-21T08:32:40;99181.38;;;12.06;57.11
56721;BME280;53183;47.412;18.884;2023-02-21T08:35:13;99184.16;;;12.17;56.92
56721;BME280;53183;47.412;18.884;2023-02-21T08:37:46;99175.75;;;12.10;56.83
56721;BME280;53183;47.412;18.884;2023-02-21T08:40:14;99172.06;;;12.13;57.56
56721;BME280;53183;47.412;18.884;2023-02-21T08:42:41;99180.78;;;12.15;56.73
56721;BME280;53183;47.412;18.884;2023-02-21T08:45:15;99191.97;;;12.06;57.58
56721;BME280;53183;47.412;18.884;2023-02-21T08:47:43;99178.81;;;12.04;57.98
56721;BME280;53183;47.412;18.884;2023-02-21T08:50:11;99191.50;;;11.99;58.44
56721;BME280;53183;47.412;18.884;2023-02-21T08:52:38;99190.00;;;11.95;58.72
56721;BME280;53183;47.412;18.884;2023-02-21T08:55:06;99193.19;;;12.00;59.17
56721;BME280;53183;47.412;18.884;2023-02-21T08:57:34;99176.84;;;12.08;59.44
56721;BME280;53183;47.412;18.884;2023-02-21T09:00:01;99193.25;;;12.13;59.97
56721;BME280;53183;47.412;18.884;2023-02-21T09:02:28;99187.91;;;12.27;60.08
56721;BME280;53183;47.412;18.884;2023-02-21T09:04:56;99183.16;;;12.32;59.21
56721;BME280;53183;47.412;18.884;2023-02-21T09:07:24;99188.06;;;12.38;59.13
56721;BME280;53183;47.412;18.884;2023-02-21T09:09:51;99170.31;;;12.26;59.61
56721;BME280;53183;47.412;18.884;2023-02-21T09:12:18;99180.19;;;12.24;59.58
56721;BME280;53183;47.412;18.884;2023-02-21T09:14:45;99187.38;;;12.22;59.23
56721;BME280;53183;47.412;18.884;2023-02-21T09:17:13;99170.75;;;12.33;60.46
56721;BME280;53183;47.412;18.884;2023-02-21T09:19:40;99172.56;;;12.32;59.14
56721;BME280;53183;47.412;18.884;2023-02-21T09:22:08;99178.50;;;12.36;60.00
56721;BME280;53183;47.412;18.884;2023-02-21T09:24:36;99176.84;;;12.48;60.43
56721;BME280;53183;47.412;18.884;2023-02-21T09:27:04;99178.34;;;12.52;59.97
56721;BME280;53183;47.412;18.884;2023-02-21T09:29:33;99164.53;;;12.47;59.87
56721;BME280;53183;47.412;18.884;2023-02-21T09:32:12;99182.81;;;12.51;60.30
56721;BME280;53183;47.412;18.884;2023-02-21T09:34:40;99164.78;;;12.56;60.21
56721;BME280;53183;47.412;18.884;2023-02-21T09:37:07;99169.69;;;12.75;60.11
56721;BME280;53183;47.412;18.884;2023-02-21T09:39:37;99161.22;;;12.96;59.98
56721;BME280;53183;47.412;18.884;2023-02-21T09:42:05;99190.38;;;12.96;59.66
56721;BME280;53183;47.412;18.884;2023-02-21T09:44:33;99176.47;;;12.79;59.96
56721;BME280;53183;47.412;18.884;2023-02-21T09:47:06;99178.28;;;12.91;60.62
56721;BME280;53183;47.412;18.884;2023-02-21T09:49:39;99174.16;;;12.87;60.38
56721;BME280;53183;47.412;18.884;2023-02-21T09:52:29;99161.53;;;12.78;61.43
56721;BME280;53183;47.412;18.884;2023-02-21T09:55:00;99174.88;;;12.89;60.65
56721;BME280;53183;47.412;18.884;2023-02-21T09:57:28;99167.81;;;12.90;61.08
56721;BME280;53183;47.412;18.884;2023-02-21T09:59:55;99178.84;;;12.97;61.10
56721;BME280;53183;47.412;18.884;2023-02-21T10:02:31;99163.97;;;12.94;60.78
56721;BME280;53183;47.412;18.884;2023-02-21T10:05:17;99164.50;;;13.12;60.15
56721;BME280;53183;47.412;18.884;2023-02-21T10:07:54;99164.19;;;13.17;59.87
56721;BME280;53183;47.412;18.884;2023-02-21T10:10:43;99168.53;;;13.18;60.07
56721;BME280;53183;47.412;18.884;2023-02-21T10:13:29;99163.56;;;13.13;60.34
56721;BME280;53183;47.412;18.884;2023-02-21T10:16:06;99164.84;;;13.20;60.91
56721;BME280;53183;47.412;18.884;2023-02-21T10:21:33;99172.66;;;13.22;60.13
56721;BME280;53183;47.412;18.884;2023-02-21T10:24:04;99173.50;;;13.09;61.29
56721;BME280;53183;47.412;18.884;2023-02-21T10:26:39;99177.81;;;13.25;60.65
56721;BME280;53183;47.412;18.884;2023-02-21T10:29:36;99179.81;;;13.34;59.51
56721;BME280;53183;47.412;18.884;2023-02-21T10:32:06;99177.34;;;13.18;61.31
56721;BME280;53183;47.412;18.884;2023-02-21T10:34:34;99168.66;;;13.29;60.62
56721;BME280;53183;47.412;18.884;2023-02-21T10:37:47;99165.00;;;13.55;60.31
56721;BME280;53183;47.412;18.884;2023-02-21T10:43:00;99162.66;;;13.76;59.39
56721;BME280;53183;47.412;18.884;2023-02-21T10:45:35;99161.69;;;13.77;59.71
56721;BME280;53183;47.412;18.884;2023-02-21T10:48:06;99155.94;;;13.83;59.70
56721;BME280;53183;47.412;18.884;2023-02-21T10:50:51;99158.41;;;13.98;59.98
56721;BME280;53183;47.412;18.884;2023-02-21T10:53:25;99162.66;;;14.00;58.76
56721;BME280;53183;47.412;18.884;2023-02-21T10:56:23;99156.16;;;14.04;60.02
56721;BME280;53183;47.412;18.884;2023-02-21T11:01:40;99159.91;;;14.02;60.04
56721;BME280;53183;47.412;18.884;2023-02-21T11:06:50;99158.28;;;14.12;59.38
56721;BME280;53183;47.412;18.884;2023-02-21T11:17:25;99148.41;;;14.01;60.05
56721;BME280;53183;47.412;18.884;2023-02-21T11:20:16;99143.44;;;13.97;61.31
56721;BME280;53183;47.412;18.884;2023-02-21T11:22:46;99153.44;;;13.93;61.32
56721;BME280;53183;47.412;18.884;2023-02-21T11:25:28;99156.19;;;13.92;61.93
56721;BME280;53183;47.412;18.884;2023-02-21T11:28:02;99158.72;;;13.82;61.66
56721;BME280;53183;47.412;18.884;2023-02-21T11:30:38;99154.87;;;13.86;60.59
56721;BME280;53183;47.412;18.884;2023-02-21T11:33:07;99154.69;;;14.00;61.27
56721;BME280;53183;47.412;18.884;2023-02-21T11:35:49;99153.41;;;14.06;61.17
56721;BME280;53183;47.412;18.884;2023-02-21T11:41:49;99160.53;;;14.05;61.22
56721;BME280;53183;47.412;18.884;2023-02-21T11:44:26;99158.75;;;13.93;60.68
56721;BME280;53183;47.412;18.884;2023-02-21T11:52:09;99127.94;;;13.91;61.13
56721;BME280;53183;47.412;18.884;2023-02-21T11:54:38;99141.63;;;13.97;60.61
56721;BME280;53183;47.412;18.884;2023-02-21T11:57:17;99146.09;;;13.97;61.05
56721;BME280;53183;47.412;18.884;2023-02-21T11:59:59;99126.50;;;13.87;61.77
56721;BME280;53183;47.412;18.884;2023-02-21T12:08:35;99126.53;;;13.74;61.84
56721;BME280;53183;47.412;18.884;2023-02-21T12:25:17;99140.22;;;13.80;63.34
56721;BME280;53183;47.412;18.884;2023-02-21T12:28:11;99135.28;;;13.87;63.02
56721;BME280;53183;47.412;18.884;2023-02-21T12:41:58;99121.03;;;13.64;63.71
56721;BME280;53183;47.412;18.884;2023-02-21T12:47:24;99116.91;;;13.60;63.83
56721;BME280;53183;47.412;18.884;2023-02-21T12:52:40;99119.75;;;13.70;64.46
56721;BME280;53183;47.412;18.884;2023-02-21T12:55:19;99118.16;;;13.67;63.21
56721;BME280;53183;47.412;18.884;2023-02-21T12:57:55;99115.09;;;13.60;63.79
56721;BME280;53183;47.412;18.884;2023-02-21T13:00:31;99107.59;;;13.78;63.88
56721;BME280;53183;47.412;18.884;2023-02-21T13:03:37;99105.25;;;13.87;63.86
56721;BME280;53183;47.412;18.884;2023-02-21T13:06:18;99110.56;;;13.87;63.53
56721;BME280;53183;47.412;18.884;2023-02-21T13:12:09;99111.78;;;13.94;63.55
56721;BME280;53183;47.412;18.884;2023-02-21T13:14:47;99101.97;;;13.83;63.38
56721;BME280;53183;47.412;18.884;2023-02-21T13:17:16;99110.03;;;13.81;62.89
56721;BME280;53183;47.412;18.884;2023-02-21T13:29:24;99094.84;;;13.83;63.12
56721;BME280;53183;47.412;18.884;2023-02-21T13:32:06;99101.25;;;13.68;63.07
56721;BME280;53183;47.412;18.884;2023-02-21T13:34:46;99100.81;;;13.74;64.04
56721;BME280;53183;47.412;18.884;2023-02-21T13:37:18;99103.56;;;13.86;62.71
56721;BME280;53183;47.412;18.884;2023-02-21T13:40:20;99101.59;;;13.88;63.42
56721;BME280;53183;47.412;18.884;2023-02-21T13:43:07;99100.66;;;13.89;63.76
56721;BME280;53183;47.412;18.884;2023-02-21T13:45:37;99097.62;;;13.82;63.90
56721;BME280;53183;47.412;18.884;2023-02-21T13:53:18;99104.13;;;14.02;62.51
56721;BME280;53183;47.412;18.884;2023-02-21T13:56:12;99104.25;;;13.88;63.15
56721;BME280;53183;47.412;18.884;2023-02-21T13:58:44;99100.41;;;13.68;63.38
56721;BME280;53183;47.412;18.884;2023-02-21T14:01:19;99097.19;;;13.75;63.82
56721;BME280;53183;47.412;18.884;2023-02-21T14:03:53;99100.59;;;13.77;63.38
56721;BME280;53183;47.412;18.884;2023-02-21T14:06:23;99094.47;;;13.64;63.79
56721;BME280;53183;47.412;18.884;2023-02-21T14:08:53;99098.28;;;13.73;64.32
56721;BME280;53183;47.412;18.884;2023-02-21T14:11:25;99095.50;;;13.74;63.97
56721;BME280;53183;47.412;18.884;2023-02-21T14:14:04;99100.19;;;13.71;63.64
56721;BME280;53183;47.412;18.884;2023-02-21T14:16:58;99108.28;;;13.69;63.78
56721;BME280;53183;47.412;18.884;2023-02-21T14:19:41;99105.47;;;13.47;64.80
56721;BME280;53183;47.412;18.884;2023-02-21T14:22:16;99106.97;;;13.38;65.75
56721;BME280;53183;47.412;18.884;2023-02-21T14:24:49;99101.78;;;13.36;65.71
56721;BME280;53183;47.412;18.884;2023-02-21T14:32:43;99092.66;;;13.28;66.30
56721;BME280;53183;47.412;18.884;2023-02-21T14:41:05;99093.91;;;13.22;66.45
56721;BME280;53183;47.412;18.884;2023-02-21T14:44:29;99091.59;;;13.30;65.33
56721;BME280;53183;47.412;18.884;2023-02-21T14:52:34;99099.03;;;13.12;64.84
56721;BME280;53183;47.412;18.884;2023-02-21T14:58:41;99090.34;;;13.10;64.98
56721;BME280;53183;47.412;18.884;2023-02-21T15:01:34;99098.59;;;13.06;64.48
56721;BME280;53183;47.412;18.884;2023-02-21T15:04:17;99092.47;;;12.93;64.14
56721;BME280;53183;47.412;18.884;2023-02-21T15:10:21;99110.72;;;12.84;64.88
56721;BME280;53183;47.412;18.884;2023-02-21T15:13:01;99106.25;;;12.85;64.71
56721;BME280;53183;47.412;18.884;2023-02-21T15:15:30;99111.03;;;12.80;65.54
56721;BME280;53183;47.412;18.884;2023-02-21T15:18:10;99110.94;;;12.81;64.16
56721;BME280;53183;47.412;18.884;2023-02-21T15:20:40;99117.72;;;12.85;65.06
56721;BME280;53183;47.412;18.884;2023-02-21T15:25:35;99102.88;;;12.70;65.16
56721;BME280;53183;47.412;18.884;2023-02-21T15:28:06;99108.69;;;12.62;65.11
56721;BME280;53183;47.412;18.884;2023-02-21T15:30:39;99102.41;;;12.63;64.92
56721;BME280;53183;47.412;18.884;2023-02-21T15:33:41;99107.75;;;12.51;65.95
56721;BME280;53183;47.412;18.884;2023-02-21T15:36:21;99101.87;;;12.46;65.96
56721;BME280;53183;47.412;18.884;2023-02-21T15:39:02;99104.94;;;12.39;66.71
56721;BME280;53183;47.412;18.884;2023-02-21T15:41:39;99097.41;;;12.33;67.20
56721;BME280;53183;47.412;18.884;2023-02-21T15:50:15;99110.91;;;12.03;68.37
56721;BME280;53183;47.412;18.884;2023-02-21T15:52:46;99111.41;;;11.95;68.72
56721;BME280;53183;47.412;18.884;2023-02-21T15:58:32;99112.56;;;11.77;69.73
56721;BME280;53183;47.412;18.884;2023-02-21T16:00:39;99124.50;;;11.70;70.33
56721;BME280;53183;47.412;18.884;2023-02-21T16:03:30;99128.19;;;11.67;69.90